createdAt,value
2023-02-02T00:01:32.798Z,6.43
2023-02-02T00:04:02.560Z,8.43
2023-02-02T00:06:32.135Z,10.73
2023-02-02T00:09:02.110Z,8.30
2023-02-02T00:11:30.012Z,7.70
2023-02-02T00:13:57.892Z,6.77
2023-02-02T00:16:45.231Z,7.30
2023-02-02T00:19:16.308Z,7.87
2023-02-02T00:21:44.973Z,10.67
2023-02-02T00:24:14.657Z,5.97
2023-02-02T00:26:44.071Z,7.23
2023-02-02T00:29:21.466Z,8.67
2023-02-02T00:31:49.974Z,7.50
2023-02-02T00:34:19.934Z,8.87
2023-02-02T00:36:48.488Z,6.23
2023-02-02T00:39:18.615Z,8.30
2023-02-02T00:41:46.843Z,2.00
2023-02-02T00:44:32.523Z,2.63
2023-02-02T00:47:00.395Z,1.63
2023-02-02T00:49:30.015Z,0.50
2023-02-02T00:51:57.851Z,0.80
2023-02-02T00:54:25.799Z,0.50
2023-02-02T00:56:53.645Z,0.60
2023-02-02T00:59:21.506Z,0.70
2023-02-02T01:01:49.446Z,0.20
2023-02-02T01:04:17.294Z,0.20
2023-02-02T01:06:46.541Z,0.30
2023-02-02T01:09:14.412Z,0.20
2023-02-02T01:11:42.801Z,0.10
2023-02-02T01:14:10.651Z,0.20
2023-02-02T01:16:38.622Z,1.07
2023-02-02T01:19:06.495Z,0.30
2023-02-02T01:21:34.388Z,0.10
2023-02-02T01:24:03.711Z,0.30
2023-02-02T01:26:31.594Z,0.13
2023-02-02T01:28:59.548Z,0.10
2023-02-02T01:31:27.526Z,0.20
2023-02-02T01:33:55.389Z,0.20
2023-02-02T01:36:25.255Z,0.20
2023-02-02T01:38:53.495Z,0.30
2023-02-02T01:41:25.225Z,0.10
2023-02-02T01:43:56.438Z,0.10
2023-02-02T01:46:26.767Z,0.27
2023-02-02T01:49:00.781Z,0.10
2023-02-02T01:51:37.768Z,0.20
2023-02-02T01:54:09.771Z,0.83
2023-02-02T01:56:46.908Z,0.10
2023-02-02T01:59:17.683Z,0.20
2023-02-02T02:01:47.673Z,0.20
2023-02-02T02:04:16.381Z,0.30
2023-02-02T02:06:45.413Z,0.20
2023-02-02T02:09:13.316Z,0.10
2023-02-02T02:11:42.561Z,0.10
2023-02-02T02:14:30.376Z,0.10
2023-02-02T02:17:32.785Z,0.20
2023-02-02T02:20:47.850Z,0.10
2023-02-02T02:24:32.053Z,0.10
2023-02-02T02:27:25.873Z,0.20
2023-02-02T02:30:27.488Z,0.27
2023-02-02T02:33:03.365Z,0.33
2023-02-02T02:35:36.898Z,0.10
2023-02-02T02:38:13.700Z,0.23
2023-02-02T02:40:45.593Z,0.20
2023-02-02T02:43:19.810Z,0.43
2023-02-02T02:45:48.003Z,0.20
2023-02-02T02:48:17.349Z,0.60
2023-02-02T02:50:45.207Z,0.20
2023-02-02T02:53:18.804Z,0.20
2023-02-02T02:55:53.803Z,0.20
2023-02-02T02:58:28.647Z,0.20
2023-02-02T03:01:06.351Z,0.53
2023-02-02T03:03:53.994Z,0.30
2023-02-02T03:06:27.476Z,0.20
2023-02-02T03:09:00.898Z,0.30
2023-02-02T03:11:29.052Z,0.50
2023-02-02T03:13:57.388Z,0.97
2023-02-02T03:16:25.671Z,0.37
2023-02-02T03:18:56.209Z,0.40
2023-02-02T03:21:24.148Z,0.30
2023-02-02T03:23:52.109Z,0.10
2023-02-02T03:26:20.280Z,0.20
2023-02-02T03:28:48.373Z,0.20
2023-02-02T03:31:16.451Z,0.47
2023-02-02T03:33:44.501Z,0.37
2023-02-02T03:36:13.778Z,0.40
2023-02-02T03:38:41.669Z,0.30
2023-02-02T03:41:09.590Z,0.20
2023-02-02T03:43:37.500Z,0.30
2023-02-02T03:46:06.962Z,1.70
2023-02-02T03:48:37.051Z,0.10
2023-02-02T03:51:08.061Z,0.33
2023-02-02T03:53:37.303Z,0.43
2023-02-02T03:56:06.019Z,0.20
2023-02-02T03:58:33.938Z,0.47
2023-02-02T04:01:04.849Z,0.20
2023-02-02T04:03:32.758Z,0.27
2023-02-02T04:06:00.944Z,0.20
2023-02-02T04:08:29.537Z,0.10
2023-02-02T04:10:59.609Z,0.10
2023-02-02T04:13:27.549Z,0.10
2023-02-02T04:16:00.081Z,0.67
2023-02-02T04:18:28.675Z,0.30
2023-02-02T04:21:00.256Z,0.30
2023-02-02T04:23:29.610Z,0.33
2023-02-02T04:25:59.534Z,0.30
2023-02-02T04:28:28.468Z,0.50
2023-02-02T04:30:57.334Z,0.63
2023-02-02T04:33:27.242Z,0.40
2023-02-02T04:35:55.636Z,0.50
2023-02-02T04:38:23.798Z,0.20
2023-02-02T04:40:52.023Z,0.30
2023-02-02T04:43:21.277Z,0.40
2023-02-02T04:45:50.255Z,0.50
2023-02-02T04:48:18.109Z,0.40
2023-02-02T04:50:45.968Z,0.30
2023-02-02T04:53:13.825Z,0.60
2023-02-02T04:55:41.797Z,0.30
2023-02-02T04:58:09.677Z,0.93
2023-02-02T05:00:38.891Z,1.10
2023-02-02T05:03:06.793Z,0.90
2023-02-02T05:05:34.639Z,1.20
2023-02-02T05:08:02.491Z,0.63
2023-02-02T05:10:30.376Z,0.60
2023-02-02T05:12:58.245Z,2.10
2023-02-02T05:15:26.359Z,0.93
2023-02-02T05:17:55.750Z,1.93
2023-02-02T05:20:23.584Z,1.43
2023-02-02T05:22:51.629Z,1.27
2023-02-02T05:25:19.643Z,0.50
2023-02-02T05:27:47.931Z,0.90
2023-02-02T05:30:16.192Z,1.07
2023-02-02T05:32:44.136Z,1.53
2023-02-02T05:35:13.403Z,0.90
2023-02-02T05:37:43.895Z,1.87
2023-02-02T05:40:12.880Z,1.10
2023-02-02T05:42:40.713Z,1.40
2023-02-02T05:45:09.369Z,1.90
2023-02-02T05:47:37.337Z,1.10
2023-02-02T05:50:05.294Z,1.63
2023-02-02T05:52:36.636Z,1.87
2023-02-02T05:55:05.034Z,1.27
2023-02-02T05:57:33.111Z,0.77
2023-02-02T06:00:00.988Z,1.10
2023-02-02T06:02:28.873Z,1.80
2023-02-02T06:04:56.727Z,1.97
2023-02-02T06:07:24.565Z,2.03
2023-02-02T06:09:53.813Z,2.40
2023-02-02T06:12:21.679Z,1.87
2023-02-02T06:14:49.523Z,2.20
2023-02-02T06:17:17.410Z,2.33
2023-02-02T06:19:45.251Z,1.23
2023-02-02T06:22:13.093Z,2.90
2023-02-02T06:24:40.955Z,1.30
2023-02-02T06:27:10.189Z,1.17
2023-02-02T06:29:38.133Z,1.53
2023-02-02T06:32:06.066Z,2.20
2023-02-02T06:34:33.975Z,2.67
2023-02-02T06:37:01.969Z,1.30
2023-02-02T06:39:30.045Z,1.47
2023-02-02T06:41:59.312Z,1.30
2023-02-02T06:44:30.521Z,1.00
2023-02-02T06:46:58.419Z,1.07
2023-02-02T06:49:26.329Z,1.10
2023-02-02T06:51:54.174Z,1.00
2023-02-02T06:54:22.016Z,1.63
2023-02-02T06:56:49.885Z,1.20
2023-02-02T06:59:18.199Z,1.33
2023-02-02T07:01:50.372Z,2.00
2023-02-02T07:04:18.425Z,1.60
2023-02-02T07:06:46.649Z,1.70
2023-02-02T07:09:14.534Z,1.87
2023-02-02T07:11:44.780Z,2.03
2023-02-02T07:14:13.715Z,2.13
2023-02-02T07:16:41.588Z,2.63
2023-02-02T07:19:10.945Z,2.17
2023-02-02T07:21:38.790Z,2.20
2023-02-02T07:24:08.049Z,3.10
2023-02-02T07:26:36.908Z,2.47
2023-02-02T07:29:04.983Z,2.67
2023-02-02T07:31:35.861Z,1.40
2023-02-02T07:34:04.751Z,1.50
2023-02-02T07:36:34.084Z,1.30
2023-02-02T07:39:04.804Z,1.60
2023-02-02T07:41:34.575Z,1.40
2023-02-02T07:44:03.022Z,1.70
2023-02-02T07:46:30.875Z,1.43
2023-02-02T07:48:59.135Z,1.87
2023-02-02T07:51:27.730Z,2.30
2023-02-02T07:53:58.537Z,1.50
2023-02-02T07:56:28.048Z,2.00
2023-02-02T07:58:56.811Z,3.23
2023-02-02T08:01:26.510Z,2.43
2023-02-02T08:03:55.722Z,2.27
2023-02-02T08:06:25.184Z,2.93
2023-02-02T08:08:53.469Z,2.13
2023-02-02T08:11:24.798Z,2.73
2023-02-02T08:13:54.300Z,2.50
2023-02-02T08:16:23.107Z,1.40
2023-02-02T08:18:51.414Z,2.17
2023-02-02T08:21:20.386Z,2.50
2023-02-02T08:23:48.775Z,2.07
2023-02-02T08:26:19.253Z,1.97
2023-02-02T08:28:50.475Z,2.33
2023-02-02T08:31:21.526Z,3.13
2023-02-02T08:33:49.394Z,3.50
2023-02-02T08:36:19.313Z,2.80
2023-02-02T08:38:47.461Z,3.30
2023-02-02T08:41:17.523Z,4.37
2023-02-02T08:43:46.053Z,6.27
2023-02-02T08:46:17.560Z,6.37
2023-02-02T08:48:45.843Z,2.67
2023-02-02T08:51:15.376Z,1.93
2023-02-02T08:53:43.620Z,2.37
2023-02-02T08:56:13.391Z,1.73
2023-02-02T08:58:45.012Z,2.37
2023-02-02T09:01:16.954Z,3.23
2023-02-02T09:03:45.470Z,1.97
2023-02-02T09:06:15.433Z,3.13
2023-02-02T09:08:43.527Z,2.70
2023-02-02T09:11:13.460Z,3.87
2023-02-02T09:13:42.729Z,4.33
2023-02-02T09:16:12.623Z,2.73
2023-02-02T09:18:42.620Z,2.60
2023-02-02T09:21:12.673Z,2.20
2023-02-02T09:23:42.701Z,1.67
2023-02-02T09:26:12.320Z,2.67
2023-02-02T09:28:41.322Z,3.50
2023-02-02T09:31:09.689Z,2.93
2023-02-02T09:33:37.991Z,3.40
2023-02-02T09:36:12.645Z,3.40
2023-02-02T09:38:41.297Z,3.57
2023-02-02T09:41:33.714Z,3.00
2023-02-02T09:44:12.121Z,3.40
2023-02-02T09:47:00.769Z,3.73
2023-02-02T09:49:36.727Z,4.83
2023-02-02T09:52:14.544Z,4.73
2023-02-02T09:54:45.761Z,4.50
2023-02-02T09:57:20.477Z,4.90
2023-02-02T09:59:52.011Z,3.73
2023-02-02T10:02:23.426Z,3.60
2023-02-02T10:04:54.354Z,3.33
2023-02-02T10:07:30.701Z,4.10
2023-02-02T10:10:01.526Z,3.87
2023-02-02T10:12:37.191Z,4.13
2023-02-02T10:15:13.502Z,3.67
2023-02-02T10:17:49.257Z,4.70
2023-02-02T10:20:33.000Z,5.53
2023-02-02T10:23:13.250Z,5.47
2023-02-02T10:25:49.709Z,6.27
2023-02-02T10:28:20.518Z,5.73
2023-02-02T10:30:56.694Z,5.33
2023-02-02T10:33:33.582Z,4.37
2023-02-02T10:36:11.705Z,4.77
2023-02-02T10:38:50.034Z,5.23
2023-02-02T10:41:25.062Z,5.23
2023-02-02T10:44:10.398Z,5.03
2023-02-02T10:46:41.950Z,5.70
2023-02-02T10:49:20.163Z,5.17
2023-02-02T10:51:58.051Z,7.00
2023-02-02T10:54:55.010Z,7.80
2023-02-02T10:57:38.953Z,6.07
2023-02-02T11:00:17.053Z,6.20
2023-02-02T11:02:45.289Z,5.40
2023-02-02T11:05:35.820Z,5.40
2023-02-02T11:08:06.136Z,4.53
2023-02-02T11:10:35.424Z,5.00
2023-02-02T11:13:04.251Z,4.33
2023-02-02T11:15:32.560Z,4.47
2023-02-02T11:18:15.905Z,4.57
2023-02-02T11:20:46.674Z,4.90
2023-02-02T11:23:20.216Z,4.53
2023-02-02T11:25:58.965Z,5.47
2023-02-02T11:28:30.432Z,5.70
2023-02-02T11:30:59.431Z,5.47
2023-02-02T11:33:30.761Z,5.80
2023-02-02T11:36:01.049Z,7.93
2023-02-02T11:38:30.101Z,9.00
2023-02-02T11:41:04.701Z,9.20
2023-02-02T11:43:40.925Z,8.03
2023-02-02T11:46:20.822Z,8.57
2023-02-02T11:48:54.361Z,10.60
2023-02-02T11:51:24.734Z,9.00
2023-02-02T11:54:04.053Z,8.80
2023-02-02T11:56:36.460Z,6.27
2023-02-02T11:59:05.548Z,5.53
2023-02-02T12:01:35.621Z,5.13
2023-02-02T12:04:06.060Z,5.40
2023-02-02T12:06:36.808Z,5.57
2023-02-02T12:09:13.368Z,7.27
2023-02-02T12:11:54.568Z,6.73
2023-02-02T12:14:38.140Z,7.90
2023-02-02T12:17:20.046Z,7.33
2023-02-02T12:20:10.742Z,8.37
2023-02-02T12:23:09.203Z,7.93
2023-02-02T12:26:09.427Z,8.27
2023-02-02T12:29:00.814Z,8.43
2023-02-02T12:31:38.931Z,8.23
2023-02-02T12:34:12.944Z,7.87
2023-02-02T12:36:51.043Z,8.50
2023-02-02T12:39:31.869Z,8.13
2023-02-02T12:42:31.382Z,9.23
2023-02-02T12:45:30.972Z,7.30
2023-02-02T12:48:12.846Z,7.33
2023-02-02T12:50:50.416Z,7.63
2023-02-02T12:53:31.309Z,6.87
2023-02-02T12:56:07.261Z,7.30
2023-02-02T12:58:44.413Z,7.70
2023-02-02T13:01:23.927Z,7.87
2023-02-02T13:04:07.145Z,7.27
2023-02-02T13:07:13.572Z,10.07
2023-02-02T13:09:52.019Z,10.67
2023-02-02T13:12:23.308Z,9.70
2023-02-02T13:14:56.836Z,10.13
2023-02-02T13:17:30.222Z,11.67
2023-02-02T13:20:03.463Z,13.17
2023-02-02T13:22:35.676Z,12.07
2023-02-02T13:25:08.720Z,9.50
2023-02-02T13:27:37.928Z,9.57
2023-02-02T13:30:14.687Z,9.07
2023-02-02T13:32:47.373Z,8.23
2023-02-02T13:35:19.215Z,8.27
2023-02-02T13:37:52.839Z,8.93
2023-02-02T13:40:28.738Z,8.23
2023-02-02T13:43:04.320Z,8.80
2023-02-02T13:45:47.545Z,8.60
2023-02-02T13:48:26.596Z,9.17
2023-02-02T13:51:20.069Z,11.90
2023-02-02T13:54:05.157Z,10.40
2023-02-02T13:56:55.444Z,11.17
2023-02-02T13:59:49.100Z,21.10
2023-02-02T14:02:25.423Z,20.17
2023-02-02T14:08:53.957Z,17.00
2023-02-02T14:11:25.740Z,15.97
2023-02-02T14:14:14.015Z,13.63
2023-02-02T14:16:48.197Z,11.73
2023-02-02T14:19:17.742Z,10.73
2023-02-02T14:22:05.121Z,9.40
2023-02-02T14:24:44.821Z,10.67
2023-02-02T14:28:01.588Z,8.57
2023-02-02T14:30:34.766Z,9.10
2023-02-02T14:33:25.956Z,8.30
2023-02-02T14:36:01.680Z,7.40
2023-02-02T14:39:05.731Z,6.13
2023-02-02T14:42:05.491Z,5.30
2023-02-02T14:44:40.736Z,4.67
2023-02-02T14:47:38.374Z,3.70
2023-02-02T14:50:14.929Z,4.03
2023-02-02T14:52:42.963Z,3.80
2023-02-02T14:55:20.002Z,3.83
2023-02-02T14:57:57.705Z,4.00
2023-02-02T15:00:29.189Z,3.93
2023-02-02T15:02:57.157Z,3.30
2023-02-02T15:05:46.373Z,4.13
2023-02-02T15:08:22.838Z,4.53
2023-02-02T15:11:23.384Z,3.67
2023-02-02T15:14:07.001Z,2.97
2023-02-02T15:16:38.722Z,3.07
2023-02-02T15:19:15.143Z,3.53
2023-02-02T15:21:43.783Z,7.17
2023-02-02T15:24:21.654Z,6.33
2023-02-02T15:26:49.761Z,7.77
2023-02-02T15:29:29.048Z,6.93
2023-02-02T15:31:57.359Z,3.97
2023-02-02T15:34:29.019Z,3.50
2023-02-02T15:37:01.185Z,2.67
2023-02-02T15:39:34.817Z,1.90
2023-02-02T15:42:23.933Z,2.13
2023-02-02T15:44:53.205Z,3.20
2023-02-02T15:47:29.690Z,5.80
2023-02-02T15:49:59.468Z,7.10
2023-02-02T15:52:30.590Z,4.70
2023-02-02T15:54:59.809Z,3.40
2023-02-02T15:57:31.287Z,2.80
2023-02-02T16:00:02.045Z,2.00
2023-02-02T16:02:39.872Z,1.93
2023-02-02T16:05:26.798Z,2.40
2023-02-02T16:08:05.092Z,1.90
2023-02-02T16:10:35.024Z,2.30
2023-02-02T16:13:03.368Z,3.00
2023-02-02T16:15:32.998Z,3.57
2023-02-02T16:18:02.250Z,3.77
2023-02-02T16:20:33.090Z,3.33
2023-02-02T16:23:04.835Z,2.80
2023-02-02T16:25:35.718Z,2.40
2023-02-02T16:28:04.337Z,3.30
2023-02-02T16:30:37.655Z,2.90
2023-02-02T16:33:44.257Z,3.27
2023-02-02T16:36:25.754Z,3.50
2023-02-02T16:38:55.398Z,3.70
2023-02-02T16:41:29.119Z,4.17
2023-02-02T16:43:57.039Z,3.73
2023-02-02T16:46:53.430Z,4.30
2023-02-02T16:49:26.185Z,4.23
2023-02-02T16:52:10.467Z,4.70
2023-02-02T16:54:39.057Z,4.47
2023-02-02T16:57:07.054Z,7.17
2023-02-02T16:59:37.939Z,8.40
2023-02-02T17:02:23.495Z,7.73
2023-02-02T17:04:55.359Z,11.70
2023-02-02T17:07:23.910Z,11.07
2023-02-02T17:09:51.903Z,10.20
2023-02-02T17:12:34.530Z,9.07
2023-02-02T17:15:24.736Z,6.40
2023-02-02T17:17:54.267Z,5.70
2023-02-02T17:20:22.970Z,5.37
2023-02-02T17:22:53.724Z,4.53
2023-02-02T17:25:27.847Z,4.80
2023-02-02T17:27:56.829Z,4.90
2023-02-02T17:30:25.376Z,7.97
2023-02-02T17:32:54.696Z,8.67
2023-02-02T17:35:26.070Z,12.00
2023-02-02T17:37:55.270Z,7.50
2023-02-02T17:40:24.599Z,7.50
2023-02-02T17:42:54.570Z,5.23
2023-02-02T17:45:25.369Z,4.80
2023-02-02T17:47:54.846Z,4.07
2023-02-02T17:50:22.778Z,3.97
2023-02-02T17:52:50.913Z,5.33
2023-02-02T17:55:22.342Z,4.10
2023-02-02T17:57:50.832Z,4.13
2023-02-02T18:00:20.745Z,5.07
2023-02-02T18:02:49.938Z,4.93
2023-02-02T18:05:19.522Z,5.70
2023-02-02T18:07:47.457Z,6.03
2023-02-02T18:10:16.713Z,7.07
2023-02-02T18:12:44.582Z,9.77
2023-02-02T18:15:14.456Z,11.10
2023-02-02T18:17:42.848Z,8.73
2023-02-02T18:20:14.646Z,12.57
2023-02-02T18:22:44.469Z,11.40
2023-02-02T18:25:12.557Z,14.80
2023-02-02T18:27:40.463Z,18.83
2023-02-02T18:30:09.204Z,17.60
2023-02-02T18:32:38.655Z,16.00
2023-02-02T18:35:07.699Z,19.57
2023-02-02T18:37:35.728Z,19.13
2023-02-02T18:40:07.817Z,16.53
2023-02-02T18:42:37.012Z,18.50
2023-02-02T18:45:05.561Z,18.47
2023-02-02T18:47:33.493Z,21.10
2023-02-02T18:50:01.378Z,20.30
2023-02-02T18:52:33.026Z,18.27
2023-02-02T18:55:01.346Z,20.97
2023-02-02T18:57:31.742Z,24.10
2023-02-02T19:00:00.062Z,23.63
2023-02-02T19:02:28.008Z,24.10
2023-02-02T19:05:13.325Z,24.90
2023-02-02T19:07:56.497Z,23.40
2023-02-02T19:10:25.068Z,22.40
2023-02-02T19:12:58.643Z,16.17
2023-02-02T19:15:27.254Z,18.93
2023-02-02T19:17:56.212Z,20.47
2023-02-02T19:20:29.507Z,17.80
2023-02-02T19:23:03.866Z,18.63
2023-02-02T19:25:31.734Z,19.37
2023-02-02T19:28:03.986Z,18.43
2023-02-02T19:30:31.905Z,17.10
2023-02-02T19:32:59.936Z,18.03
2023-02-02T19:35:28.877Z,20.87
2023-02-02T19:38:01.582Z,21.17
2023-02-02T19:40:29.668Z,17.77
2023-02-02T19:43:02.990Z,20.07
2023-02-02T19:45:33.806Z,16.60
2023-02-02T19:48:03.742Z,18.40
2023-02-02T19:50:40.962Z,16.90
2023-02-02T19:53:17.452Z,22.47
2023-02-02T19:55:45.396Z,18.53
2023-02-02T19:58:20.643Z,23.70
2023-02-02T20:00:49.340Z,13.67
2023-02-02T20:03:20.889Z,14.73
2023-02-02T20:05:50.328Z,13.43
2023-02-02T20:08:25.152Z,14.90
2023-02-02T20:10:54.559Z,14.90
2023-02-02T20:13:26.734Z,12.80
2023-02-02T20:16:03.631Z,13.30
2023-02-02T20:18:42.748Z,17.40
2023-02-02T20:21:21.156Z,12.00
2023-02-02T20:23:49.602Z,13.67
2023-02-02T20:26:26.968Z,14.83
2023-02-02T20:28:58.835Z,11.37
2023-02-02T20:31:35.763Z,14.93
2023-02-02T20:34:16.891Z,12.80
2023-02-02T20:36:45.284Z,13.43
2023-02-02T20:39:35.509Z,13.53
2023-02-02T20:42:04.002Z,13.13
2023-02-02T20:44:34.839Z,12.57
2023-02-02T20:47:03.311Z,13.17
2023-02-02T20:49:32.143Z,13.83
2023-02-02T20:52:02.982Z,15.33
2023-02-02T20:54:31.757Z,12.17
2023-02-02T20:56:59.689Z,12.73
2023-02-02T20:59:27.692Z,11.87
2023-02-02T21:01:57.032Z,9.83
2023-02-02T21:04:24.963Z,9.97
2023-02-02T21:06:52.890Z,11.80
2023-02-02T21:09:20.778Z,11.83
2023-02-02T21:11:49.083Z,12.17
2023-02-02T21:14:17.045Z,9.60
2023-02-02T21:16:45.316Z,15.10
2023-02-02T21:19:14.605Z,12.70
2023-02-02T21:21:42.471Z,10.07
2023-02-02T21:24:10.609Z,8.20
2023-02-02T21:26:38.511Z,8.73
2023-02-02T21:29:06.389Z,6.80
2023-02-02T21:31:35.435Z,8.77
2023-02-02T21:34:03.499Z,8.57
2023-02-02T21:36:34.844Z,9.87
2023-02-02T21:39:21.907Z,12.73
2023-02-02T21:41:50.202Z,10.73
2023-02-02T21:44:20.035Z,11.90
2023-02-02T21:46:50.390Z,10.47
2023-02-02T21:49:25.114Z,10.10
2023-02-02T21:51:58.558Z,9.83
2023-02-02T21:54:28.832Z,11.07
2023-02-02T21:56:56.856Z,11.67
2023-02-02T21:59:29.690Z,10.77
2023-02-02T22:01:57.598Z,11.40
2023-02-02T22:04:28.497Z,12.60
2023-02-02T22:07:01.430Z,11.07
2023-02-02T22:09:38.200Z,12.40
2023-02-02T22:12:15.794Z,9.87
2023-02-02T22:14:46.461Z,11.00
2023-02-02T22:17:22.043Z,10.57
2023-02-02T22:19:52.267Z,9.53
2023-02-02T22:22:22.950Z,10.33
2023-02-02T22:24:59.016Z,11.63
2023-02-02T22:27:28.517Z,10.80
2023-02-02T22:30:01.481Z,12.20
2023-02-02T22:32:29.501Z,10.40
2023-02-02T22:34:57.415Z,9.13
2023-02-02T22:37:26.706Z,8.67
2023-02-02T22:39:54.657Z,8.20
2023-02-02T22:42:22.607Z,7.70
2023-02-02T22:44:50.919Z,7.30
2023-02-02T22:47:18.784Z,7.93
2023-02-02T22:49:46.667Z,7.73
2023-02-02T22:52:14.544Z,7.70
2023-02-02T22:54:43.825Z,7.50
2023-02-02T22:57:11.772Z,7.97
2023-02-02T22:59:39.659Z,8.67
2023-02-02T23:02:07.541Z,8.10
2023-02-02T23:04:35.871Z,7.97
2023-02-02T23:07:04.137Z,7.87
2023-02-02T23:09:32.054Z,8.10
2023-02-02T23:12:01.307Z,8.60
2023-02-02T23:14:29.245Z,8.73
2023-02-02T23:16:57.156Z,8.87
2023-02-02T23:19:25.040Z,12.27
2023-02-02T23:21:52.915Z,17.23
2023-02-02T23:24:20.803Z,13.80
2023-02-02T23:26:48.688Z,13.97
2023-02-02T23:29:17.926Z,12.60
2023-02-02T23:31:45.903Z,10.93
2023-02-02T23:34:13.873Z,13.57
2023-02-02T23:36:41.758Z,10.80
2023-02-02T23:39:09.717Z,10.43
2023-02-02T23:41:38.408Z,9.30
2023-02-02T23:44:06.706Z,10.10
2023-02-02T23:46:37.544Z,11.73
2023-02-02T23:49:05.963Z,10.93
2023-02-02T23:51:34.254Z,11.87
2023-02-02T23:54:02.831Z,10.50
2023-02-02T23:56:30.890Z,10.83
2023-02-02T23:58:58.775Z,10.57
